createdAt,value
2023-05-02T00:01:04.812Z,100894.65
2023-05-02T00:03:48.358Z,100899.05
2023-05-02T00:06:39.308Z,100901.94
2023-05-02T00:09:46.849Z,100906.55
2023-05-02T00:12:26.334Z,100908.98
2023-05-02T00:15:16.772Z,100911.34
2023-05-02T00:17:54.362Z,100910.44
2023-05-02T00:20:57.389Z,100920.63
2023-05-02T00:23:43.189Z,100922.20
2023-05-02T00:26:24.895Z,100925.55
2023-05-02T00:28:58.237Z,100926.14
2023-05-02T00:31:32.813Z,100923.47
2023-05-02T00:34:40.105Z,100925.48
2023-05-02T00:37:15.388Z,100932.44
2023-05-02T00:39:53.864Z,100933.34
2023-05-02T00:42:35.826Z,100938.17
2023-05-02T00:45:19.236Z,100941.66
2023-05-02T00:47:55.425Z,100945.72
2023-05-02T00:50:31.849Z,100942.83
2023-05-02T00:53:05.843Z,100944.11
2023-05-02T00:55:41.903Z,100946.43
2023-05-02T01:02:05.340Z,100955.78
2023-05-02T01:05:19.839Z,100958.86
2023-05-02T01:08:22.785Z,100959.35
2023-05-02T01:11:22.533Z,100958.64
2023-05-02T01:14:02.008Z,100956.74
2023-05-02T01:18:00.111Z,100952.73
2023-05-02T01:20:44.888Z,100952.88
2023-05-02T01:23:28.146Z,100954.58
2023-05-02T01:26:40.135Z,100953.55
2023-05-02T01:29:17.019Z,100954.88
2023-05-02T01:32:03.279Z,100956.98
2023-05-02T01:34:46.493Z,100956.77
2023-05-02T01:37:23.571Z,100957.73
2023-05-02T01:39:57.374Z,100960.94
2023-05-02T01:42:27.883Z,100960.08
2023-05-02T01:45:15.774Z,100960.95
2023-05-02T01:48:22.196Z,100957.92
2023-05-02T01:51:03.105Z,100958.35
2023-05-02T01:54:18.744Z,100962.08
2023-05-02T01:56:56.666Z,100961.38
2023-05-02T01:59:43.084Z,100965.46
2023-05-02T02:02:36.408Z,100965.86
2023-05-02T02:08:11.747Z,100976.16
2023-05-02T02:11:22.649Z,100979.27
2023-05-02T02:15:02.693Z,100981.05
2023-05-02T02:18:01.561Z,100987.99
2023-05-02T02:25:39.424Z,100997.36
2023-05-02T02:28:27.761Z,101001.79
2023-05-02T02:31:22.889Z,101003.08
2023-05-02T02:33:58.935Z,101008.88
2023-05-02T02:37:14.004Z,101015.59
2023-05-02T02:40:03.850Z,101007.81
2023-05-02T02:43:40.567Z,101022.29
2023-05-02T02:47:15.486Z,101032.60
2023-05-02T02:49:58.947Z,101035.98
2023-05-02T02:53:18.105Z,101037.58
2023-05-02T02:56:08.054Z,101044.62
2023-05-02T02:59:17.856Z,101045.05
2023-05-02T03:02:16.812Z,101048.46
2023-05-02T03:04:47.154Z,101053.59
2023-05-02T03:07:42.450Z,101053.08
2023-05-02T03:11:09.402Z,101058.92
2023-05-02T03:14:31.461Z,101065.80
2023-05-02T03:17:38.641Z,101063.90
2023-05-02T03:20:37.052Z,101068.61
2023-05-02T03:23:20.002Z,101076.78
2023-05-02T03:25:57.881Z,101078.70
2023-05-02T03:29:36.098Z,101080.01
2023-05-02T03:32:15.965Z,101064.50
2023-05-02T03:35:07.899Z,101081.05
2023-05-02T03:37:47.639Z,101078.51
2023-05-02T03:40:45.191Z,101081.58
2023-05-02T03:43:22.705Z,101085.88
2023-05-02T03:46:07.807Z,101088.19
2023-05-02T03:49:01.738Z,101097.27
2023-05-02T03:52:23.582Z,101097.73
2023-05-02T03:55:12.138Z,101100.21
2023-05-02T03:58:58.582Z,101105.59
2023-05-02T04:01:55.278Z,101109.02
2023-05-02T04:04:57.930Z,101112.35
2023-05-02T04:07:44.629Z,101116.23
2023-05-02T04:10:25.559Z,101119.64
2023-05-02T04:13:28.949Z,101121.60
2023-05-02T04:16:32.634Z,101127.70
2023-05-02T04:23:59.448Z,101136.59
2023-05-02T04:26:46.977Z,101134.14
2023-05-02T04:29:20.685Z,101134.87
2023-05-02T04:32:02.264Z,101130.80
2023-05-02T04:34:38.467Z,101133.30
2023-05-02T04:37:26.351Z,101136.46
2023-05-02T04:40:24.062Z,101135.36
2023-05-02T04:43:15.516Z,101139.33
2023-05-02T04:46:18.877Z,101140.33
2023-05-02T04:49:43.947Z,101136.23
2023-05-02T04:52:42.674Z,101142.20
2023-05-02T04:55:25.928Z,101143.04
2023-05-02T04:58:50.482Z,101144.67
2023-05-02T05:01:31.032Z,101144.67
2023-05-02T05:04:05.312Z,101146.20
2023-05-02T05:10:18.850Z,101149.39
2023-05-02T05:13:20.090Z,101146.40
2023-05-02T05:16:02.186Z,101152.16
2023-05-02T05:22:52.403Z,101153.58
2023-05-02T05:26:19.686Z,101149.67
2023-05-02T05:29:15.488Z,101149.59
2023-05-02T05:32:51.193Z,101147.70
2023-05-02T05:43:04.766Z,101153.75
2023-05-02T05:46:39.355Z,101149.74
2023-05-02T05:53:29.969Z,101154.95
2023-05-02T06:01:19.537Z,101154.89
2023-05-02T06:04:20.544Z,101158.18
2023-05-02T06:13:06.893Z,101159.49
2023-05-02T06:23:19.304Z,101162.23
2023-05-02T06:35:21.533Z,101157.67
2023-05-02T06:42:17.129Z,101166.25
2023-05-02T06:45:17.707Z,101166.70
2023-05-02T06:47:51.688Z,101170.41
2023-05-02T06:50:57.321Z,101172.17
2023-05-02T06:56:44.108Z,101175.98
2023-05-02T06:59:48.095Z,101178.37
2023-05-02T07:02:45.679Z,101171.70
2023-05-02T07:05:42.880Z,101177.64
2023-05-02T07:08:26.493Z,101174.13
2023-05-02T07:11:29.097Z,101172.66
2023-05-02T07:17:22.788Z,101176.55
2023-05-02T07:24:02.447Z,101175.52
2023-05-02T07:26:55.075Z,101175.50
2023-05-02T07:30:16.474Z,101175.73
2023-05-02T07:36:35.280Z,101181.88
2023-05-02T07:40:25.632Z,101169.35
2023-05-02T07:43:13.882Z,101183.92
2023-05-02T07:45:51.577Z,101173.71
2023-05-02T07:48:33.564Z,101180.92
2023-05-02T07:51:34.142Z,101184.85
2023-05-02T08:00:04.202Z,101191.74
2023-05-02T08:03:16.392Z,101186.23
2023-05-02T08:06:14.667Z,101190.73
2023-05-02T08:09:17.715Z,101192.70
2023-05-02T08:16:29.762Z,101189.52
2023-05-02T08:20:15.917Z,101190.52
2023-05-02T08:30:32.568Z,101182.91
2023-05-02T08:33:58.715Z,101183.03
2023-05-02T08:37:23.712Z,101182.69
2023-05-02T08:40:03.142Z,101180.52
2023-05-02T08:42:46.898Z,101179.11
2023-05-02T08:45:30.426Z,101178.48
2023-05-02T08:49:09.928Z,101177.48
2023-05-02T08:53:00.859Z,101177.25
2023-05-02T08:56:35.551Z,101179.75
2023-05-02T08:59:49.837Z,101180.58
2023-05-02T09:03:23.665Z,101178.27
2023-05-02T09:10:49.647Z,101167.89
2023-05-02T09:13:53.562Z,101168.04
2023-05-02T09:16:38.827Z,101165.05
2023-05-02T09:20:04.007Z,101165.69
2023-05-02T09:23:05.523Z,101165.85
2023-05-02T09:30:30.688Z,101163.83
2023-05-02T09:33:31.406Z,101153.95
2023-05-02T09:36:30.900Z,101159.73
2023-05-02T09:39:34.871Z,101149.87
2023-05-02T09:42:46.864Z,101156.23
2023-05-02T09:56:08.237Z,101154.98
2023-05-02T09:59:23.489Z,101142.27
2023-05-02T10:03:29.805Z,101148.16
2023-05-02T10:06:06.577Z,101145.64
2023-05-02T10:17:07.248Z,101140.14
2023-05-02T10:20:41.469Z,101134.86
2023-05-02T10:24:16.734Z,101135.23
2023-05-02T10:27:06.436Z,101134.84
2023-05-02T10:30:50.600Z,101127.48
2023-05-02T10:33:37.168Z,101127.63
2023-05-02T10:36:37.557Z,101130.67
2023-05-02T10:40:10.389Z,101132.70
2023-05-02T10:46:56.756Z,101127.54
2023-05-02T10:55:28.455Z,101129.73
2023-05-02T10:58:50.484Z,101121.29
2023-05-02T11:02:17.930Z,101122.80
2023-05-02T11:06:05.637Z,101125.88
2023-05-02T11:18:24.177Z,101105.77
2023-05-02T11:30:58.885Z,101100.77
2023-05-02T11:34:25.009Z,101102.09
2023-05-02T11:37:51.017Z,101096.11
2023-05-02T11:52:24.734Z,101100.13
2023-05-02T11:56:48.470Z,101102.48
2023-05-02T12:00:45.270Z,101086.81
2023-05-02T12:03:47.481Z,101088.80
2023-05-02T12:06:39.301Z,101089.30
2023-05-02T12:16:27.767Z,101083.06
2023-05-02T12:23:51.259Z,101082.86
2023-05-02T12:26:47.384Z,101075.30
2023-05-02T12:30:05.005Z,101078.31
2023-05-02T12:33:37.507Z,101075.64
2023-05-02T12:46:44.399Z,101074.56
2023-05-02T12:50:04.004Z,101072.09
2023-05-02T12:53:14.207Z,101067.24
2023-05-02T12:56:48.850Z,101065.20
2023-05-02T13:08:27.408Z,101056.50
2023-05-02T13:11:14.854Z,101059.80
2023-05-02T13:23:25.021Z,101050.30
2023-05-02T13:33:23.145Z,101044.25
2023-05-02T13:58:34.551Z,101029.30
2023-05-02T14:10:48.680Z,101024.57
2023-05-02T14:30:35.041Z,100999.02
2023-05-02T14:34:13.764Z,101004.16
2023-05-02T14:36:59.122Z,101004.20
2023-05-02T14:40:25.571Z,100996.42
2023-05-02T14:43:30.020Z,100983.11
2023-05-02T14:46:16.842Z,100995.48
2023-05-02T15:12:52.334Z,100981.80
2023-05-02T15:20:44.662Z,100982.84
2023-05-02T15:24:31.190Z,100983.77
2023-05-02T15:27:25.445Z,100978.52
2023-05-02T15:34:42.598Z,100971.30
2023-05-02T15:38:33.338Z,100968.98
2023-05-02T15:46:48.977Z,100967.69
2023-05-02T15:53:40.314Z,100980.76
2023-05-02T16:21:00.636Z,100982.80
2023-05-02T17:20:18.960Z,100980.14
2023-05-02T17:37:49.382Z,100983.27
2023-05-02T18:01:33.601Z,100981.01
2023-05-02T18:30:50.375Z,100987.84
2023-05-02T18:33:57.023Z,100988.88
2023-05-02T18:42:26.912Z,100988.74
2023-05-02T18:45:47.369Z,100990.43
2023-05-02T19:31:05.566Z,101004.27
2023-05-02T19:34:58.197Z,101002.39
2023-05-02T19:37:51.469Z,100992.52
2023-05-02T19:50:07.670Z,100999.14
2023-05-02T20:11:24.925Z,100990.96
2023-05-02T20:14:24.486Z,100990.80
2023-05-02T20:21:18.618Z,100995.11
2023-05-02T20:28:34.726Z,100998.28
2023-05-02T20:32:02.983Z,100996.52
2023-05-02T20:36:11.049Z,101000.19
2023-05-02T20:38:49.413Z,100997.97
2023-05-02T20:41:39.996Z,100997.48
2023-05-02T20:44:48.701Z,101001.25
2023-05-02T20:48:18.028Z,101001.67
2023-05-02T20:56:01.188Z,101013.39
2023-05-02T20:59:31.676Z,101012.78
2023-05-02T21:03:19.251Z,101016.77
2023-05-02T21:06:00.628Z,101013.90
2023-05-02T21:09:04.779Z,101008.70
2023-05-02T21:11:47.820Z,101009.58
2023-05-02T21:15:04.059Z,101003.00
2023-05-02T21:18:07.727Z,101001.98
2023-05-02T21:20:56.983Z,101000.10
2023-05-02T21:24:03.509Z,101000.13
2023-05-02T21:31:51.936Z,101002.66
2023-05-02T21:39:56.853Z,101000.51
2023-05-02T21:42:47.972Z,101001.42
2023-05-02T21:45:54.404Z,101000.60
2023-05-02T21:48:46.209Z,100994.95
2023-05-02T21:51:39.772Z,100997.55
2023-05-02T21:54:27.533Z,100985.70
2023-05-02T22:01:24.460Z,100990.19
2023-05-02T22:04:13.046Z,101000.37
2023-05-02T22:06:58.676Z,100999.17
2023-05-02T22:09:48.522Z,101002.22
2023-05-02T22:12:36.492Z,101000.39
2023-05-02T22:15:22.474Z,100998.41
2023-05-02T22:18:30.194Z,100995.68
2023-05-02T22:21:22.428Z,100995.33
2023-05-02T22:24:20.199Z,100997.95
2023-05-02T22:27:06.794Z,101000.27
2023-05-02T22:29:59.210Z,101000.52
2023-05-02T22:32:46.983Z,100998.42
2023-05-02T22:35:38.372Z,100999.70
2023-05-02T22:38:17.104Z,100995.87
2023-05-02T22:41:13.981Z,100999.52
2023-05-02T22:44:11.880Z,101001.68
2023-05-02T22:46:49.633Z,101002.41
2023-05-02T22:50:21.195Z,101003.49
2023-05-02T22:53:05.032Z,101010.90
2023-05-02T22:55:44.910Z,101008.88
2023-05-02T22:58:28.413Z,101010.80
2023-05-02T23:01:12.206Z,101008.89
2023-05-02T23:04:38.598Z,101010.61
2023-05-02T23:07:28.858Z,101010.77
2023-05-02T23:10:18.016Z,101011.05
2023-05-02T23:12:58.863Z,101009.03
2023-05-02T23:15:29.215Z,101012.19
2023-05-02T23:18:23.282Z,101012.46
2023-05-02T23:21:04.332Z,101009.71
2023-05-02T23:24:15.550Z,101009.13
2023-05-02T23:26:51.054Z,101012.41
2023-05-02T23:29:33.494Z,101011.42
2023-05-02T23:32:15.893Z,101019.60
2023-05-02T23:34:55.178Z,101020.75
2023-05-02T23:37:30.009Z,101024.73
2023-05-02T23:40:11.672Z,101028.23
2023-05-02T23:42:45.117Z,101027.41
2023-05-02T23:45:19.902Z,101026.56
2023-05-02T23:48:00.039Z,101017.51
2023-05-02T23:50:33.399Z,101025.98
2023-05-02T23:53:17.592Z,101029.26
2023-05-02T23:55:58.251Z,101032.20
2023-05-02T23:59:01.306Z,101032.27
